Time;durP1;ratioP1;P1;durP2;ratioP2;P2;SDS_P1;SDS_P2;PMS_P1;PMS_P2;Temp;Humidity;BMP_temperature;BMP_pressure;BME280_temperature;BME280_humidity;BME280_pressure;Samples;Min_cycle;Max_cycle;Signal;HPM_P1;HPM_P2
2023/03/25 00:02:16;;;;;;;1.17;0.88;;;;;;;;;;5028526;28;20021;-75
2023/03/25 00:05:02;;;;;;;1.67;0.85;;;;;;;;;;5021618;28;20051;-76
2023/03/25 00:07:49;;;;;;;1.42;0.73;;;;;;;;;;5023951;28;20051;-77
2023/03/25 00:10:34;;;;;;;1.05;0.65;;;;;;;;;;5040879;28;20124;-76
2023/03/25 00:13:20;;;;;;;0.60;0.50;;;;;;;;;;5008453;28;20489;-68
2023/03/25 00:16:05;;;;;;;2.10;0.80;;;;;;;;;;5024637;28;20559;-69
2023/03/25 00:18:51;;;;;;;1.30;0.70;;;;;;;;;;5027014;28;20135;-69
2023/03/25 00:21:36;;;;;;;2.90;0.80;;;;;;;;;;5025489;28;20052;-69
2023/03/25 00:24:21;;;;;;;2.85;0.75;;;;;;;;;;5026855;28;20115;-68
2023/03/25 00:27:06;;;;;;;0.75;0.50;;;;;;;;;;5027614;28;20111;-68
2023/03/25 00:29:52;;;;;;;0.82;0.57;;;;;;;;;;5026984;28;20033;-77
2023/03/25 00:32:38;;;;;;;0.85;0.80;;;;;;;;;;5026852;28;20534;-76
2023/03/25 00:35:24;;;;;;;3.33;0.85;;;;;;;;;;5026624;28;20071;-72
2023/03/25 00:38:10;;;;;;;0.68;0.60;;;;;;;;;;5027078;28;20033;-73
2023/03/25 00:40:55;;;;;;;1.75;0.65;;;;;;;;;;5040890;28;20426;-71
2023/03/25 00:43:41;;;;;;;1.15;0.70;;;;;;;;;;5025502;28;20171;-73
2023/03/25 00:46:28;;;;;;;1.15;0.70;;;;;;;;;;5011547;28;20021;-73
2023/03/25 00:49:13;;;;;;;2.55;0.75;;;;;;;;;;5018336;28;20108;-76
2023/03/25 00:51:59;;;;;;;2.95;0.88;;;;;;;;;;5037568;28;20038;-67
2023/03/25 00:54:44;;;;;;;3.08;1.05;;;;;;;;;;5011521;28;20021;-67
2023/03/25 00:57:29;;;;;;;1.02;0.90;;;;;;;;;;5023073;28;20029;-68
2023/03/25 01:00:16;;;;;;;2.00;0.80;;;;;;;;;;5012157;28;20072;-67
2023/03/25 01:03:02;;;;;;;3.42;1.65;;;;;;;;;;5023795;28;20137;-68
2023/03/25 01:05:48;;;;;;;2.55;1.00;;;;;;;;;;5020179;28;20032;-67
2023/03/25 01:08:33;;;;;;;3.13;0.80;;;;;;;;;;5039014;28;20025;-72
2023/03/25 01:11:20;;;;;;;1.35;0.80;;;;;;;;;;5023838;28;20029;-70
2023/03/25 01:14:07;;;;;;;3.50;0.90;;;;;;;;;;5021539;28;20218;-68
2023/03/25 01:16:52;;;;;;;4.38;0.90;;;;;;;;;;5024580;28;20021;-71
2023/03/25 01:19:37;;;;;;;1.80;0.80;;;;;;;;;;5023107;28;20591;-71
2023/03/25 01:22:23;;;;;;;2.08;1.17;;;;;;;;;;5025273;28;20057;-70
2023/03/25 01:25:08;;;;;;;2.55;0.98;;;;;;;;;;5024231;28;20388;-72
2023/03/25 01:27:53;;;;;;;4.35;0.95;;;;;;;;;;5026138;28;20507;-75
2023/03/25 01:30:39;;;;;;;3.05;1.10;;;;;;;;;;5020265;28;20025;-73
2023/03/25 01:33:24;;;;;;;3.15;0.88;;;;;;;;;;5022075;28;20059;-73
2023/03/25 01:36:11;;;;;;;4.03;1.10;;;;;;;;;;5021908;28;20033;-73
2023/03/25 01:38:57;;;;;;;2.45;1.10;;;;;;;;;;5036730;28;20033;-72
2023/03/25 01:41:44;;;;;;;2.20;0.90;;;;;;;;;;5024610;28;20437;-72
2023/03/25 01:44:30;;;;;;;4.22;1.10;;;;;;;;;;5025083;28;20029;-78
2023/03/25 01:47:16;;;;;;;4.40;0.90;;;;;;;;;;5025643;28;20022;-69
2023/03/25 01:50:02;;;;;;;2.97;1.10;;;;;;;;;;5025234;28;20035;-70
2023/03/25 01:52:50;;;;;;;4.35;1.90;;;;;;;;;;5025469;28;20408;-71
2023/03/25 01:55:36;;;;;;;2.83;1.05;;;;;;;;;;5022974;28;20025;-69
2023/03/25 01:58:23;;;;;;;2.42;0.80;;;;;;;;;;5025458;28;20036;-70
2023/03/25 02:01:12;;;;;;;3.28;1.10;;;;;;;;;;5024324;28;20032;-72
2023/03/25 02:04:11;;;;;;;2.40;1.45;;;;;;;;;;5019956;28;20128;-71
2023/03/25 02:06:57;;;;;;;2.38;0.93;;;;;;;;;;5024971;28;20108;-67
2023/03/25 02:09:42;;;;;;;19.98;3.33;;;;;;;;;;5034423;28;20094;-69
2023/03/25 02:12:27;;;;;;;2.85;1.27;;;;;;;;;;5023548;28;20440;-68
2023/03/25 02:15:14;;;;;;;1.40;0.85;;;;;;;;;;5007884;28;20017;-68
2023/03/25 02:18:05;;;;;;;3.50;1.20;;;;;;;;;;5025171;28;20211;-68
2023/03/25 02:20:56;;;;;;;1.55;0.90;;;;;;;;;;5024907;28;20041;-76
2023/03/25 02:24:01;;;;;;;2.45;1.27;;;;;;;;;;5011791;28;20503;-81
2023/03/25 02:27:03;;;;;;;5.47;1.13;;;;;;;;;;5023756;28;20041;-78
2023/03/25 02:29:52;;;;;;;3.78;1.08;;;;;;;;;;5025023;28;20034;-79
2023/03/25 02:32:44;;;;;;;1.75;0.93;;;;;;;;;;5025646;28;20037;-79
2023/03/25 02:35:53;;;;;;;2.00;0.82;;;;;;;;;;5018711;28;20033;-80
2023/03/25 02:38:50;;;;;;;2.78;0.82;;;;;;;;;;5011009;28;20403;-68
2023/03/25 02:41:53;;;;;;;4.30;1.15;;;;;;;;;;5025300;28;20048;-76
2023/03/25 02:44:59;;;;;;;3.05;1.20;;;;;;;;;;5026973;28;20094;-72
2023/03/25 02:47:46;;;;;;;2.70;1.10;;;;;;;;;;5028880;28;20032;-72
2023/03/25 02:50:42;;;;;;;2.55;1.00;;;;;;;;;;5027466;28;20037;-72
2023/03/25 02:53:32;;;;;;;4.35;1.10;;;;;;;;;;5028664;28;20030;-73
2023/03/25 02:56:22;;;;;;;2.05;0.93;;;;;;;;;;5027236;28;20025;-71
2023/03/25 02:59:08;;;;;;;2.78;1.10;;;;;;;;;;5027867;28;20471;-68
2023/03/25 03:01:57;;;;;;;4.78;1.23;;;;;;;;;;5026492;28;20027;-70
2023/03/25 03:04:46;;;;;;;1.85;1.13;;;;;;;;;;5027370;28;20042;-70
2023/03/25 03:07:32;;;;;;;;;;;;;;;;;;5029143;28;20048;-70
2023/03/25 03:10:22;;;;;;;2.90;0.98;;;;;;;;;;5026611;28;19917;-72
2023/03/25 03:13:17;;;;;;;5.78;1.98;;;;;;;;;;5040140;28;20041;-69
2023/03/25 03:16:14;;;;;;;2.90;0.90;;;;;;;;;;5026897;28;20232;-72
2023/03/25 03:19:06;;;;;;;1.80;0.90;;;;;;;;;;5027887;28;20025;-70
2023/03/25 03:22:02;;;;;;;2.58;0.85;;;;;;;;;;5041388;28;20044;-70
2023/03/25 03:25:07;;;;;;;2.42;0.95;;;;;;;;;;5027368;28;20026;-70
2023/03/25 03:28:03;;;;;;;1.23;0.95;;;;;;;;;;5011199;28;20036;-71
2023/03/25 03:30:53;;;;;;;1.85;0.73;;;;;;;;;;5023691;28;20033;-70
2023/03/25 03:33:39;;;;;;;;;;;;;;;;;;5042593;28;20388;-75
2023/03/25 03:36:26;;;;;;;2.83;1.10;;;;;;;;;;5040444;28;19913;-67
2023/03/25 03:39:18;;;;;;;2.38;0.82;;;;;;;;;;5027199;28;20029;-73
2023/03/25 03:42:06;;;;;;;3.42;1.20;;;;;;;;;;5027694;28;20596;-73
2023/03/25 03:44:55;;;;;;;1.92;1.20;;;;;;;;;;5027236;28;20064;-72
2023/03/25 03:47:42;;;;;;;4.22;0.82;;;;;;;;;;5041554;28;20025;-71
2023/03/25 03:50:35;;;;;;;1.48;0.70;;;;;;;;;;5025790;28;20069;-72
2023/03/25 03:53:25;;;;;;;0.80;0.50;;;;;;;;;;5023222;28;20469;-73
2023/03/25 03:56:12;;;;;;;2.30;0.88;;;;;;;;;;5027630;28;20272;-69
2023/03/25 03:58:59;;;;;;;1.15;0.60;;;;;;;;;;5026050;28;20056;-71
2023/03/25 04:01:46;;;;;;;0.60;0.50;;;;;;;;;;5022375;28;20025;-71
2023/03/25 04:04:33;;;;;;;0.60;0.60;;;;;;;;;;5027563;28;20511;-70
2023/03/25 04:07:22;;;;;;;2.55;0.77;;;;;;;;;;5024670;28;20025;-70
2023/03/25 04:10:13;;;;;;;1.30;0.75;;;;;;;;;;5014081;28;20041;-71
2023/03/25 04:13:01;;;;;;;0.70;0.70;;;;;;;;;;5027675;28;20605;-71
2023/03/25 04:15:47;;;;;;;1.58;0.60;;;;;;;;;;5037743;28;20621;-73
2023/03/25 04:18:32;;;;;;;0.60;0.60;;;;;;;;;;5040696;28;20136;-74
2023/03/25 04:21:18;;;;;;;1.25;0.70;;;;;;;;;;5038833;28;20091;-75
2023/03/25 04:24:07;;;;;;;0.93;0.60;;;;;;;;;;5025626;28;20029;-75
2023/03/25 04:26:52;;;;;;;0.82;0.70;;;;;;;;;;5012634;28;20031;-74
2023/03/25 04:29:39;;;;;;;2.35;0.60;;;;;;;;;;5027015;28;20025;-66
2023/03/25 04:32:26;;;;;;;1.33;0.55;;;;;;;;;;5012611;28;20068;-70
2023/03/25 04:35:15;;;;;;;1.25;0.60;;;;;;;;;;5026670;28;20037;-72
2023/03/25 04:38:01;;;;;;;0.73;0.70;;;;;;;;;;5040520;28;20033;-69
2023/03/25 04:40:46;;;;;;;0.45;0.45;;;;;;;;;;5025361;28;20028;-70
2023/03/25 04:43:31;;;;;;;2.10;0.65;;;;;;;;;;5014130;28;20036;-71
2023/03/25 04:46:17;;;;;;;1.95;0.77;;;;;;;;;;5026865;28;20025;-69
2023/03/25 04:49:04;;;;;;;0.70;0.70;;;;;;;;;;5017749;28;20499;-69
2023/03/25 04:51:51;;;;;;;2.05;0.68;;;;;;;;;;5013868;28;20555;-69
2023/03/25 04:54:39;;;;;;;2.17;0.90;;;;;;;;;;5042027;28;20029;-70
2023/03/25 04:57:25;;;;;;;1.50;0.80;;;;;;;;;;5028228;28;20041;-69
2023/03/25 05:00:12;;;;;;;2.38;0.70;;;;;;;;;;5042441;28;20033;-70
2023/03/25 05:03:00;;;;;;;0.70;0.70;;;;;;;;;;5027853;28;20056;-70
2023/03/25 05:05:46;;;;;;;0.63;0.57;;;;;;;;;;5026565;28;20029;-76
2023/03/25 05:08:32;;;;;;;1.08;0.80;;;;;;;;;;5028031;28;20136;-68
2023/03/25 05:11:17;;;;;;;0.90;0.65;;;;;;;;;;5015849;28;20396;-69
2023/03/25 05:14:02;;;;;;;2.25;0.70;;;;;;;;;;5022867;28;20029;-71
2023/03/25 05:16:48;;;;;;;2.58;0.85;;;;;;;;;;5025200;28;20048;-68
2023/03/25 05:19:33;;;;;;;3.15;1.42;;;;;;;;;;5028012;28;20029;-69
2023/03/25 05:22:19;;;;;;;2.55;0.93;;;;;;;;;;5035656;28;20357;-71
2023/03/25 05:25:05;;;;;;;3.72;0.93;;;;;;;;;;5036126;28;20036;-70
2023/03/25 05:27:50;;;;;;;1.55;0.77;;;;;;;;;;5024365;28;20021;-76
2023/03/25 05:30:38;;;;;;;1.98;0.80;;;;;;;;;;5023198;28;20631;-75
2023/03/25 05:33:23;;;;;;;1.77;0.90;;;;;;;;;;5018166;28;20022;-75
2023/03/25 05:36:09;;;;;;;0.90;0.70;;;;;;;;;;5025101;28;20030;-76
2023/03/25 05:38:55;;;;;;;3.40;0.73;;;;;;;;;;5025100;28;20085;-76
2023/03/25 05:41:41;;;;;;;2.20;0.95;;;;;;;;;;5020845;28;20033;-75
2023/03/25 05:44:26;;;;;;;5.50;1.35;;;;;;;;;;5021251;28;20113;-67
2023/03/25 05:47:12;;;;;;;4.32;0.80;;;;;;;;;;5036926;28;20124;-75
2023/03/25 05:49:59;;;;;;;2.88;0.88;;;;;;;;;;5020044;28;20519;-71
2023/03/25 05:52:48;;;;;;;6.10;1.20;;;;;;;;;;5023220;28;20100;-72
2023/03/25 05:55:33;;;;;;;3.38;1.10;;;;;;;;;;5025094;28;20021;-72
2023/03/25 05:58:18;;;;;;;2.55;1.10;;;;;;;;;;5019934;28;20049;-74
2023/03/25 06:01:04;;;;;;;2.17;1.10;;;;;;;;;;5026754;28;20417;-69
2023/03/25 06:03:49;;;;;;;5.22;1.05;;;;;;;;;;5027299;28;20043;-67
2023/03/25 06:06:34;;;;;;;1.30;0.88;;;;;;;;;;5040055;28;20038;-75
2023/03/25 06:09:20;;;;;;;3.17;1.05;;;;;;;;;;5027346;28;20029;-74
2023/03/25 06:12:06;;;;;;;4.45;1.08;;;;;;;;;;5027318;28;20037;-77
2023/03/25 06:14:52;;;;;;;4.45;1.42;;;;;;;;;;5041309;28;20047;-76
2023/03/25 06:17:38;;;;;;;1.88;1.00;;;;;;;;;;5012868;28;20025;-74
2023/03/25 06:20:23;;;;;;;5.78;1.50;;;;;;;;;;5045006;28;20029;-67
2023/03/25 06:23:09;;;;;;;2.50;1.33;;;;;;;;;;5030492;28;20039;-78
2023/03/25 06:25:54;;;;;;;7.38;1.45;;;;;;;;;;5044792;28;20026;-78
2023/03/25 06:28:40;;;;;;;4.45;1.73;;;;;;;;;;5030186;28;20028;-80
2023/03/25 06:31:25;;;;;;;5.03;1.15;;;;;;;;;;5030305;28;20567;-79
2023/03/25 06:34:10;;;;;;;2.55;1.00;;;;;;;;;;5044949;28;20125;-79
2023/03/25 06:36:56;;;;;;;8.10;1.50;;;;;;;;;;5029004;28;20032;-78
2023/03/25 06:39:45;;;;;;;5.63;1.33;;;;;;;;;;5030647;28;20578;-74
2023/03/25 06:42:30;;;;;;;2.28;1.20;;;;;;;;;;5016892;28;20032;-74
2023/03/25 06:45:15;;;;;;;4.47;1.10;;;;;;;;;;5028622;28;20087;-75
2023/03/25 06:48:01;;;;;;;3.67;1.17;;;;;;;;;;5008581;28;20034;-75
2023/03/25 06:50:46;;;;;;;5.75;0.93;;;;;;;;;;5029386;28;20033;-75
2023/03/25 06:53:31;;;;;;;2.67;1.02;;;;;;;;;;5016174;28;20060;-75
2023/03/25 06:56:16;;;;;;;5.63;1.10;;;;;;;;;;5030333;28;20494;-73
2023/03/25 06:59:02;;;;;;;4.15;1.52;;;;;;;;;;5030337;28;20026;-77
2023/03/25 07:01:47;;;;;;;2.53;0.98;;;;;;;;;;5037746;28;20461;-68
2023/03/25 07:04:32;;;;;;;3.15;1.13;;;;;;;;;;5020816;28;20048;-69
2023/03/25 07:07:18;;;;;;;2.67;1.00;;;;;;;;;;5029274;28;20423;-69
2023/03/25 07:10:03;;;;;;;3.60;1.23;;;;;;;;;;5016449;28;20060;-68
2023/03/25 07:12:48;;;;;;;3.72;1.10;;;;;;;;;;5028735;28;20079;-71
2023/03/25 07:15:34;;;;;;;3.13;1.20;;;;;;;;;;5029277;28;20033;-76
2023/03/25 07:18:19;;;;;;;3.13;0.90;;;;;;;;;;5039935;28;20184;-68
2023/03/25 07:21:04;;;;;;;2.47;1.17;;;;;;;;;;5028515;28;20120;-68
2023/03/25 07:23:50;;;;;;;4.55;1.30;;;;;;;;;;5028891;28;20026;-68
2023/03/25 07:26:35;;;;;;;3.10;1.20;;;;;;;;;;5019061;28;20037;-67
2023/03/25 07:29:20;;;;;;;3.78;1.00;;;;;;;;;;5028921;28;20527;-66
2023/03/25 07:32:05;;;;;;;4.10;1.30;;;;;;;;;;5029741;28;20736;-67
2023/03/25 07:34:51;;;;;;;2.72;1.15;;;;;;;;;;5029857;28;20040;-70
2023/03/25 07:37:36;;;;;;;3.92;1.20;;;;;;;;;;5042882;28;20029;-76
2023/03/25 07:40:21;;;;;;;1.38;0.85;;;;;;;;;;5032894;28;20056;-74
2023/03/25 07:43:06;;;;;;;3.22;0.90;;;;;;;;;;5013601;28;20031;-73
2023/03/25 07:45:52;;;;;;;3.80;1.55;;;;;;;;;;5028867;28;20029;-74
2023/03/25 07:48:37;;;;;;;2.17;0.90;;;;;;;;;;5028204;28;20084;-76
2023/03/25 07:51:23;;;;;;;7.88;1.42;;;;;;;;;;5023600;28;20068;-75
2023/03/25 07:54:08;;;;;;;1.48;1.05;;;;;;;;;;5021129;28;20035;-79
2023/03/25 07:56:54;;;;;;;3.63;1.17;;;;;;;;;;5029300;28;20043;-72
2023/03/25 07:59:39;;;;;;;2.58;0.80;;;;;;;;;;5043039;28;20221;-73
2023/03/25 08:02:24;;;;;;;3.22;0.82;;;;;;;;;;5026491;28;20090;-72
2023/03/25 08:05:11;;;;;;;3.70;1.35;;;;;;;;;;5027144;28;20124;-72
2023/03/25 08:07:58;;;;;;;1.65;0.70;;;;;;;;;;5017970;28;20400;-71
2023/03/25 08:10:46;;;;;;;3.47;1.00;;;;;;;;;;5023896;28;20037;-71
2023/03/25 08:13:31;;;;;;;4.43;0.80;;;;;;;;;;5024012;28;20041;-71
2023/03/25 08:16:16;;;;;;;1.00;0.77;;;;;;;;;;5026331;28;20029;-73
2023/03/25 08:19:02;;;;;;;6.28;1.00;;;;;;;;;;5021571;28;20120;-75
2023/03/25 08:21:47;;;;;;;2.58;0.88;;;;;;;;;;5025944;28;20079;-74
2023/03/25 08:24:32;;;;;;;1.58;0.82;;;;;;;;;;5027482;28;20029;-78
2023/03/25 08:27:18;;;;;;;2.30;0.82;;;;;;;;;;5026792;28;20048;-77
2023/03/25 08:30:03;;;;;;;1.20;0.80;;;;;;;;;;5014651;28;20423;-71
2023/03/25 08:32:53;;;;;;;2.60;0.88;;;;;;;;;;5013459;28;20083;-76
2023/03/25 08:35:38;;;;;;;1.67;0.85;;;;;;;;;;5023913;28;20096;-75
2023/03/25 08:38:24;;;;;;;1.63;0.82;;;;;;;;;;5021003;28;20034;-74
2023/03/25 08:41:09;;;;;;;1.75;0.70;;;;;;;;;;5023876;28;20060;-75
2023/03/25 08:43:54;;;;;;;1.10;0.63;;;;;;;;;;5025721;28;21523;-75
2023/03/25 08:46:40;;;;;;;0.98;0.65;;;;;;;;;;5020967;28;20025;-71
2023/03/25 08:49:25;;;;;;;2.40;0.75;;;;;;;;;;5033067;28;20060;-70
2023/03/25 08:52:10;;;;;;;2.05;0.80;;;;;;;;;;5017608;28;20095;-68
2023/03/25 08:54:55;;;;;;;2.10;0.77;;;;;;;;;;5036278;28;20044;-68
2023/03/25 08:57:41;;;;;;;1.42;1.02;;;;;;;;;;5029021;28;20514;-68
2023/03/25 09:00:27;;;;;;;2.35;0.70;;;;;;;;;;5021516;28;20025;-67
2023/03/25 09:03:12;;;;;;;0.98;0.90;;;;;;;;;;5025776;28;20080;-68
2023/03/25 09:05:57;;;;;;;1.80;0.80;;;;;;;;;;5007873;28;20266;-77
2023/03/25 09:08:42;;;;;;;2.35;0.80;;;;;;;;;;5031838;28;20033;-74
2023/03/25 09:11:28;;;;;;;2.20;0.60;;;;;;;;;;5008715;28;20030;-73
2023/03/25 09:14:13;;;;;;;1.45;1.10;;;;;;;;;;5038633;28;20041;-73
2023/03/25 09:16:58;;;;;;;1.55;0.70;;;;;;;;;;5009657;28;20098;-73
2023/03/25 09:19:44;;;;;;;0.93;0.70;;;;;;;;;;5016029;28;20436;-72
2023/03/25 09:22:29;;;;;;;2.25;0.80;;;;;;;;;;5021573;28;20036;-71
2023/03/25 09:25:14;;;;;;;2.00;0.70;;;;;;;;;;5024997;28;20059;-71
2023/03/25 09:28:00;;;;;;;1.10;1.00;;;;;;;;;;5025308;28;20611;-74
2023/03/25 09:30:45;;;;;;;3.53;0.80;;;;;;;;;;5022490;28;20565;-73
2023/03/25 09:33:30;;;;;;;1.40;0.90;;;;;;;;;;5034960;28;20128;-73
2023/03/25 09:36:16;;;;;;;3.17;1.00;;;;;;;;;;5027610;28;20579;-74
2023/03/25 09:39:01;;;;;;;2.22;1.00;;;;;;;;;;5041154;28;20030;-75
2023/03/25 09:41:52;;;;;;;3.85;1.20;;;;;;;;;;5026957;28;20030;-75
2023/03/25 09:44:45;;;;;;;1.15;0.85;;;;;;;;;;5022203;28;20025;-74
2023/03/25 09:47:32;;;;;;;0.60;0.60;;;;;;;;;;5041326;28;20124;-68
2023/03/25 09:50:18;;;;;;;3.10;0.80;;;;;;;;;;5021356;28;20062;-68
2023/03/25 09:53:13;;;;;;;2.88;0.98;;;;;;;;;;5045758;28;20025;-69
2023/03/25 09:55:59;;;;;;;2.17;1.00;;;;;;;;;;5048103;28;20508;-69
2023/03/25 09:58:45;;;;;;;1.17;0.80;;;;;;;;;;5034177;28;20409;-68
2023/03/25 10:01:31;;;;;;;1.40;0.80;;;;;;;;;;5046934;28;20026;-68
2023/03/25 10:04:17;;;;;;;2.38;0.80;;;;;;;;;;5033818;28;20080;-69
2023/03/25 10:07:09;;;;;;;2.00;0.80;;;;;;;;;;5034067;28;20094;-69
2023/03/25 10:10:06;;;;;;;1.73;0.98;;;;;;;;;;5034070;28;20029;-69
2023/03/25 10:13:00;;;;;;;3.10;0.93;;;;;;;;;;5033111;28;20633;-71
2023/03/25 10:15:52;;;;;;;1.38;1.00;;;;;;;;;;5033146;28;20069;-70
2023/03/25 10:18:37;;;;;;;1.92;0.85;;;;;;;;;;5025928;28;20022;-72
2023/03/25 10:21:25;;;;;;;2.83;0.98;;;;;;;;;;5029797;28;20048;-69
2023/03/25 10:24:16;;;;;;;2.28;1.27;;;;;;;;;;5030162;28;20041;-73
2023/03/25 10:27:04;;;;;;;2.00;0.95;;;;;;;;;;5034078;28;20068;-72
2023/03/25 10:29:49;;;;;;;1.13;0.80;;;;;;;;;;5033823;28;20033;-73
2023/03/25 10:32:45;;;;;;;0.70;0.70;;;;;;;;;;5020054;28;20059;-73
2023/03/25 10:35:34;;;;;;;1.42;0.90;;;;;;;;;;5047538;28;20476;-71
2023/03/25 10:38:22;;;;;;;1.38;0.82;;;;;;;;;;5022748;28;20399;-73
2023/03/25 10:41:25;;;;;;;1.85;0.80;;;;;;;;;;5045820;28;20391;-65
2023/03/25 10:44:11;;;;;;;1.48;0.73;;;;;;;;;;5048261;28;20052;-67
2023/03/25 10:47:01;;;;;;;1.35;0.80;;;;;;;;;;5030853;28;20068;-66
2023/03/25 10:49:48;;;;;;;0.77;0.75;;;;;;;;;;5028937;28;20709;-65
2023/03/25 10:52:33;;;;;;;2.67;0.90;;;;;;;;;;5023314;28;20392;-66
2023/03/25 10:55:27;;;;;;;1.05;0.80;;;;;;;;;;5047466;28;20599;-70
2023/03/25 10:58:15;;;;;;;1.48;0.80;;;;;;;;;;5049841;28;20040;-69
2023/03/25 11:01:08;;;;;;;3.03;1.02;;;;;;;;;;5013210;28;20047;-69
2023/03/25 11:03:54;;;;;;;1.63;0.93;;;;;;;;;;5030866;28;20072;-68
2023/03/25 11:06:41;;;;;;;1.70;0.93;;;;;;;;;;5044155;28;20075;-69
2023/03/25 11:09:29;;;;;;;1.33;0.70;;;;;;;;;;5027192;28;20179;-68
2023/03/25 11:12:16;;;;;;;2.00;1.25;;;;;;;;;;5039763;28;20052;-68
2023/03/25 11:15:02;;;;;;;1.20;0.85;;;;;;;;;;5044486;28;20021;-74
2023/03/25 11:17:54;;;;;;;1.42;0.70;;;;;;;;;;5044391;28;20170;-74
2023/03/25 11:20:44;;;;;;;2.45;0.90;;;;;;;;;;5030179;28;20029;-74
2023/03/25 11:23:29;;;;;;;3.05;0.80;;;;;;;;;;5044162;28;20079;-73
2023/03/25 11:26:20;;;;;;;2.15;0.70;;;;;;;;;;5030226;28;20040;-75
2023/03/25 11:29:13;;;;;;;2.05;0.73;;;;;;;;;;5016355;28;20034;-74
2023/03/25 11:32:06;;;;;;;1.30;0.70;;;;;;;;;;5043852;28;20042;-69
2023/03/25 11:34:52;;;;;;;1.27;0.80;;;;;;;;;;5030043;28;20064;-73
2023/03/25 11:37:43;;;;;;;1.23;0.70;;;;;;;;;;5029068;28;20116;-77
2023/03/25 11:40:29;;;;;;;1.95;0.77;;;;;;;;;;5029039;28;20420;-77
2023/03/25 11:43:18;;;;;;;1.98;0.85;;;;;;;;;;5024443;28;20045;-77
2023/03/25 11:46:15;;;;;;;0.95;0.70;;;;;;;;;;5028918;28;20097;-78
2023/03/25 11:49:07;;;;;;;1.35;1.08;;;;;;;;;;5016895;28;20026;-77
2023/03/25 11:51:57;;;;;;;1.58;0.88;;;;;;;;;;5042065;28;20484;-74
2023/03/25 11:54:43;;;;;;;2.25;0.90;;;;;;;;;;5042869;28;20480;-76
2023/03/25 11:57:33;;;;;;;1.08;0.60;;;;;;;;;;5011675;28;20476;-79
2023/03/25 12:00:21;;;;;;;0.70;0.70;;;;;;;;;;5029350;28;20021;-76
2023/03/25 12:03:09;;;;;;;2.72;0.90;;;;;;;;;;5022502;28;20073;-75
2023/03/25 12:06:00;;;;;;;1.67;0.90;;;;;;;;;;5029294;28;20519;-76
2023/03/25 12:08:55;;;;;;;1.80;0.90;;;;;;;;;;5029756;28;20038;-70
2023/03/25 12:11:59;;;;;;;1.83;1.00;;;;;;;;;;5040498;28;20029;-70
2023/03/25 12:14:54;;;;;;;3.58;1.02;;;;;;;;;;5029623;28;20025;-76
2023/03/25 12:17:46;;;;;;;3.67;1.10;;;;;;;;;;5028215;28;20476;-78
2023/03/25 12:20:32;;;;;;;3.42;0.90;;;;;;;;;;5023561;28;20017;-78
2023/03/25 12:23:26;;;;;;;1.75;0.80;;;;;;;;;;5029367;28;20055;-76
2023/03/25 12:26:11;;;;;;;1.30;0.85;;;;;;;;;;5029224;28;20029;-76
2023/03/25 12:29:06;;;;;;;2.20;1.20;;;;;;;;;;5028983;28;20530;-68
2023/03/25 12:32:10;;;;;;;3.88;1.05;;;;;;;;;;5026606;28;20029;-77
2023/03/25 12:35:03;;;;;;;1.42;0.70;;;;;;;;;;5023292;28;20040;-77
2023/03/25 12:37:55;;;;;;;4.63;1.00;;;;;;;;;;5026657;28;20032;-77
2023/03/25 12:40:56;;;;;;;2.67;1.20;;;;;;;;;;5014475;28;20022;-76
2023/03/25 12:43:41;;;;;;;3.13;0.98;;;;;;;;;;5025260;28;20026;-77
2023/03/25 12:46:50;;;;;;;2.22;0.70;;;;;;;;;;5028475;28;20424;-69
2023/03/25 12:49:54;;;;;;;1.67;0.95;;;;;;;;;;5018195;28;20047;-70
2023/03/25 12:52:51;;;;;;;2.55;1.10;;;;;;;;;;5016952;28;20025;-69
2023/03/25 12:55:50;;;;;;;4.07;0.98;;;;;;;;;;5028670;28;20034;-70
2023/03/25 12:58:44;;;;;;;1.25;0.95;;;;;;;;;;5033303;28;20037;-69
2023/03/25 13:01:35;;;;;;;1.65;0.80;;;;;;;;;;5042142;28;20064;-70
2023/03/25 13:04:20;;;;;;;2.83;0.90;;;;;;;;;;5014873;28;20052;-70
2023/03/25 13:07:09;;;;;;;2.17;0.90;;;;;;;;;;5028022;28;20029;-74
2023/03/25 13:10:10;;;;;;;2.38;1.15;;;;;;;;;;5041942;28;20036;-70
2023/03/25 13:12:57;;;;;;;3.40;1.20;;;;;;;;;;5013951;28;20184;-70
2023/03/25 13:15:45;;;;;;;2.58;0.90;;;;;;;;;;5010808;28;20029;-69
2023/03/25 13:18:32;;;;;;;1.90;0.73;;;;;;;;;;5019503;28;20068;-69
2023/03/25 13:21:20;;;;;;;3.13;1.20;;;;;;;;;;5020530;28;20087;-68
2023/03/25 13:24:24;;;;;;;4.75;1.23;;;;;;;;;;5016223;28;20067;-69
2023/03/25 13:27:12;;;;;;;1.38;1.00;;;;;;;;;;5027332;28;20017;-73
2023/03/25 13:29:58;;;;;;;1.20;0.95;;;;;;;;;;5024062;28;20033;-71
2023/03/25 13:32:49;;;;;;;3.53;1.15;;;;;;;;;;5027590;28;20033;-73
2023/03/25 13:35:34;;;;;;;2.80;1.10;;;;;;;;;;5041612;28;20511;-73
2023/03/25 13:38:27;;;;;;;1.17;0.70;;;;;;;;;;5027915;28;20551;-72
2023/03/25 13:41:16;;;;;;;2.85;0.65;;;;;;;;;;5027637;28;20116;-68
2023/03/25 13:46:43;;;;;;;0.98;0.80;;;;;;;;;;5065210;28;20052;-72
2023/03/25 13:49:36;;;;;;;3.20;0.70;;;;;;;;;;5057715;28;20029;-73
2023/03/25 13:52:24;;;;;;;2.42;1.08;;;;;;;;;;5066550;28;20028;-72
2023/03/25 13:55:12;;;;;;;2.70;0.82;;;;;;;;;;5067732;28;20111;-71
2023/03/25 13:57:57;;;;;;;3.33;1.20;;;;;;;;;;5067750;28;20089;-72
2023/03/25 14:00:55;;;;;;;2.13;1.00;;;;;;;;;;5067458;28;20032;-72
2023/03/25 14:03:43;;;;;;;2.28;0.70;;;;;;;;;;5048564;28;20047;-72
2023/03/25 14:06:28;;;;;;;3.13;0.98;;;;;;;;;;5057810;28;20036;-73
2023/03/25 14:09:32;;;;;;;4.05;0.98;;;;;;;;;;5037762;28;20060;-72
2023/03/25 14:12:22;;;;;;;3.83;1.90;;;;;;;;;;5058588;28;20403;-72
2023/03/25 14:15:14;;;;;;;2.80;1.00;;;;;;;;;;5063557;28;20379;-71
2023/03/25 14:18:00;;;;;;;4.80;1.83;;;;;;;;;;5060495;28;20040;-70
2023/03/25 14:20:45;;;;;;;4.75;1.02;;;;;;;;;;5065758;28;20033;-72
2023/03/25 14:23:31;;;;;;;1.55;0.90;;;;;;;;;;5062626;28;20032;-79
2023/03/25 14:26:17;;;;;;;3.17;0.90;;;;;;;;;;5064484;28;20414;-80
2023/03/25 14:29:07;;;;;;;4.47;1.05;;;;;;;;;;5068182;28;20036;-79
2023/03/25 14:32:19;;;;;;;3.03;0.80;;;;;;;;;;5067524;28;20108;-79
2023/03/25 14:35:25;;;;;;;3.65;0.95;;;;;;;;;;5034995;28;20044;-79
2023/03/25 14:38:17;;;;;;;2.92;1.00;;;;;;;;;;5061938;28;20086;-74
2023/03/25 14:41:03;;;;;;;4.10;1.13;;;;;;;;;;5064716;28;20071;-69
2023/03/25 14:43:52;;;;;;;1.10;0.93;;;;;;;;;;5057362;28;20029;-67
2023/03/25 14:46:37;;;;;;;5.40;1.25;;;;;;;;;;5055988;28;20040;-66
2023/03/25 14:49:28;;;;;;;2.17;1.00;;;;;;;;;;5054701;28;20036;-69
2023/03/25 14:52:14;;;;;;;4.70;1.17;;;;;;;;;;5055221;28;20029;-68
2023/03/25 14:55:03;;;;;;;3.70;1.05;;;;;;;;;;5051658;28;20087;-73
2023/03/25 14:57:51;;;;;;;1.40;0.75;;;;;;;;;;5064250;22;20463;-85
2023/03/25 15:00:41;;;;;;;1.80;0.95;;;;;;;;;;5011080;28;20117;-81
2023/03/25 15:03:35;;;;;;;2.28;1.13;;;;;;;;;;5016384;28;20053;-81
2023/03/25 15:06:32;;;;;;;3.13;1.40;;;;;;;;;;5029445;28;20033;-81
2023/03/25 15:09:18;;;;;;;2.88;1.25;;;;;;;;;;5029419;28;20119;-79
2023/03/25 15:12:04;;;;;;;3.03;0.82;;;;;;;;;;5015932;28;20030;-80
2023/03/25 15:14:53;;;;;;;2.28;1.17;;;;;;;;;;5014481;28;20120;-81
2023/03/25 15:17:43;;;;;;;5.45;1.50;;;;;;;;;;5015758;28;20388;-73
2023/03/25 15:20:30;;;;;;;;;;;;;;;;;;5016720;28;20155;-73
2023/03/25 15:23:35;;;;;;;4.75;1.75;;;;;;;;;;5014847;28;19955;-74
2023/03/25 15:26:31;;;;;;;8.52;2.03;;;;;;;;;;5017050;28;20030;-74
2023/03/25 15:29:23;;;;;;;2.20;1.15;;;;;;;;;;5015612;28;20018;-71
2023/03/25 15:32:41;;;;;;;3.55;1.27;;;;;;;;;;5015668;28;20042;-72
2023/03/25 15:35:35;;;;;;;3.20;1.20;;;;;;;;;;4991809;28;20030;-74
2023/03/25 15:38:33;;;;;;;4.72;1.60;;;;;;;;;;5016609;28;20477;-74
2023/03/25 15:41:38;;;;;;;5.78;1.33;;;;;;;;;;5016400;28;20075;-74
2023/03/25 15:44:41;;;;;;;1.98;0.90;;;;;;;;;;5015134;28;20092;-74
2023/03/25 15:47:27;;;;;;;6.60;0.98;;;;;;;;;;5015850;28;20033;-73
2023/03/25 15:50:31;;;;;;;3.65;1.10;;;;;;;;;;5016318;28;20473;-80
2023/03/25 15:53:30;;;;;;;2.53;1.20;;;;;;;;;;5014945;28;20393;-73
2023/03/25 15:56:17;;;;;;;7.78;1.17;;;;;;;;;;5016940;28;20038;-74
2023/03/25 15:59:33;;;;;;;2.25;0.85;;;;;;;;;;5015388;28;20042;-73
2023/03/25 16:02:34;;;;;;;3.20;1.08;;;;;;;;;;5008478;28;20029;-74
2023/03/25 16:05:20;;;;;;;3.78;1.00;;;;;;;;;;5015831;28;20088;-73
2023/03/25 16:08:13;;;;;;;2.22;1.10;;;;;;;;;;5014332;28;20053;-82
2023/03/25 16:11:22;;;;;;;3.38;0.90;;;;;;;;;;5016264;28;20108;-73
2023/03/25 16:14:11;;;;;;;6.72;0.98;;;;;;;;;;5014811;28;20501;-74
2023/03/25 16:16:58;;;;;;;2.10;1.13;;;;;;;;;;5014773;28;20045;-75
2023/03/25 16:19:47;;;;;;;5.15;1.00;;;;;;;;;;5013500;28;20053;-75
2023/03/25 16:22:34;;;;;;;6.20;1.27;;;;;;;;;;5015845;28;20018;-75
2023/03/25 16:25:40;;;;;;;5.18;1.63;;;;;;;;;;5015310;28;20033;-75
2023/03/25 16:28:27;;;;;;;3.58;1.02;;;;;;;;;;5013104;28;20052;-75
2023/03/25 16:31:27;;;;;;;5.07;2.35;;;;;;;;;;5014474;28;20107;-80
2023/03/25 16:34:14;;;;;;;3.20;1.10;;;;;;;;;;5015676;28;20043;-80
2023/03/25 16:37:00;;;;;;;3.83;1.10;;;;;;;;;;5014182;28;20033;-80
2023/03/25 16:39:51;;;;;;;5.97;1.27;;;;;;;;;;5013653;28;20033;-80
2023/03/25 16:42:36;;;;;;;2.92;1.10;;;;;;;;;;5015190;28;20033;-80
2023/03/25 16:45:22;;;;;;;4.90;1.35;;;;;;;;;;5013544;28;20021;-75
2023/03/25 16:48:14;;;;;;;6.70;1.70;;;;;;;;;;5013973;28;20022;-83
2023/03/25 16:51:04;;;;;;;2.75;1.20;;;;;;;;;;5015052;28;20030;-83
2023/03/25 16:53:52;;;;;;;3.67;1.20;;;;;;;;;;5015453;28;20104;-82
2023/03/25 16:56:38;;;;;;;2.22;1.10;;;;;;;;;;5015241;28;20483;-83